createdAt,value
2019-04-16T00:01:07.356Z,11.12
2019-04-16T00:03:38.994Z,11.12
2019-04-16T00:06:24.187Z,10.75
2019-04-16T00:09:09.184Z,10.68
2019-04-16T00:11:46.304Z,10.53
2019-04-16T00:14:28.030Z,11.05
2019-04-16T00:17:00.241Z,11.03
2019-04-16T00:19:29.597Z,11.30
2019-04-16T00:22:11.476Z,11.22
2019-04-16T00:24:41.406Z,10.88
2019-04-16T00:27:11.458Z,12.30
2019-04-16T00:29:40.736Z,10.32
2019-04-16T00:32:26.039Z,12.37
2019-04-16T00:34:54.999Z,10.95
2019-04-16T00:37:24.639Z,10.90
2019-04-16T00:39:56.049Z,11.38
2019-04-16T00:42:25.388Z,10.15
2019-04-16T00:44:54.897Z,10.88
2019-04-16T00:47:24.594Z,10.90
2019-04-16T00:49:57.774Z,11.15
2019-04-16T00:52:25.225Z,11.10
2019-04-16T00:54:56.107Z,11.10
2019-04-16T00:57:25.378Z,12.37
2019-04-16T00:59:56.142Z,10.72
2019-04-16T01:02:25.541Z,11.15
2019-04-16T01:04:54.734Z,11.83
2019-04-16T01:07:24.033Z,10.78
2019-04-16T01:09:53.203Z,11.20
2019-04-16T01:12:22.413Z,11.70
2019-04-16T01:14:51.717Z,11.68
2019-04-16T01:17:20.921Z,10.80
2019-04-16T01:19:50.270Z,10.23
2019-04-16T01:22:19.531Z,10.95
2019-04-16T01:24:51.761Z,11.73
2019-04-16T01:27:22.322Z,10.25
2019-04-16T01:29:51.576Z,11.38
2019-04-16T01:32:42.403Z,11.73
2019-04-16T01:35:20.330Z,12.28
2019-04-16T01:38:07.576Z,9.98
2019-04-16T01:40:52.293Z,10.82
2019-04-16T01:43:25.563Z,10.45
2019-04-16T01:45:52.515Z,10.98
2019-04-16T01:48:21.753Z,11.60
2019-04-16T01:50:51.057Z,11.20
2019-04-16T01:53:21.012Z,12.68
2019-04-16T01:55:50.978Z,11.60
2019-04-16T01:58:20.118Z,11.50
2019-04-16T02:00:49.357Z,10.63
2019-04-16T02:03:18.570Z,11.45
2019-04-16T02:05:47.854Z,11.30
2019-04-16T02:08:17.011Z,11.25
2019-04-16T02:10:46.135Z,11.80
2019-04-16T02:13:15.942Z,11.35
2019-04-16T02:15:45.497Z,10.70
2019-04-16T02:18:14.842Z,12.53
2019-04-16T02:20:43.971Z,12.37
2019-04-16T02:23:13.519Z,11.95
2019-04-16T02:25:44.092Z,11.53
2019-04-16T02:28:13.397Z,12.23
2019-04-16T02:30:42.646Z,11.50
2019-04-16T02:33:11.864Z,11.33
2019-04-16T02:35:41.045Z,10.40
2019-04-16T02:38:12.940Z,11.50
2019-04-16T02:40:41.770Z,11.12
2019-04-16T02:43:11.109Z,10.75
2019-04-16T02:45:40.375Z,11.38
2019-04-16T02:48:15.490Z,11.22
2019-04-16T02:50:47.696Z,11.93
2019-04-16T02:53:34.598Z,11.28
2019-04-16T02:56:21.840Z,10.95
2019-04-16T02:59:12.960Z,12.55
2019-04-16T03:01:58.544Z,10.88
2019-04-16T03:04:33.227Z,11.33
2019-04-16T03:07:03.297Z,11.73
2019-04-16T03:09:33.534Z,11.45
2019-04-16T03:12:03.023Z,11.80
2019-04-16T03:14:32.259Z,11.80
2019-04-16T03:17:12.021Z,11.38
2019-04-16T03:19:42.745Z,11.60
2019-04-16T03:22:12.194Z,11.53
2019-04-16T03:24:42.166Z,10.98
2019-04-16T03:27:12.557Z,12.35
2019-04-16T03:29:41.804Z,11.97
2019-04-16T03:32:14.429Z,11.73
2019-04-16T03:34:41.903Z,11.60
2019-04-16T03:37:13.100Z,12.10
2019-04-16T03:39:44.742Z,11.53
2019-04-16T03:42:13.248Z,11.53
2019-04-16T03:44:42.458Z,10.75
2019-04-16T03:47:11.786Z,12.00
2019-04-16T03:49:41.058Z,11.60
2019-04-16T03:52:10.307Z,11.22
2019-04-16T03:54:39.502Z,12.75
2019-04-16T03:57:08.837Z,11.55
2019-04-16T03:59:40.009Z,12.65
2019-04-16T04:02:09.203Z,12.03
2019-04-16T04:04:38.525Z,11.30
2019-04-16T04:07:09.011Z,11.50
2019-04-16T04:09:38.731Z,12.28
2019-04-16T04:12:09.664Z,10.78
2019-04-16T04:14:38.898Z,11.28
2019-04-16T04:17:08.344Z,12.47
2019-04-16T04:19:37.569Z,12.03
2019-04-16T04:22:06.793Z,11.73
2019-04-16T04:24:36.009Z,13.22
2019-04-16T04:27:05.196Z,10.82
2019-04-16T04:29:34.546Z,11.33
2019-04-16T04:32:04.323Z,12.55
2019-04-16T04:34:33.766Z,11.63
2019-04-16T04:37:03.435Z,10.95
2019-04-16T04:39:32.580Z,11.75
2019-04-16T04:42:01.866Z,11.43
2019-04-16T04:44:33.605Z,12.55
2019-04-16T04:47:02.133Z,11.48
2019-04-16T04:49:31.516Z,11.65
2019-04-16T04:52:00.682Z,11.95
2019-04-16T04:54:30.476Z,11.68
2019-04-16T04:57:00.246Z,12.30
2019-04-16T04:59:29.702Z,11.95
2019-04-16T05:01:59.122Z,10.95
2019-04-16T05:04:37.070Z,11.85
2019-04-16T05:07:07.738Z,12.37
2019-04-16T05:09:37.104Z,11.63
2019-04-16T05:12:08.307Z,11.22
2019-04-16T05:14:40.935Z,11.88
2019-04-16T05:17:10.288Z,12.60
2019-04-16T05:19:39.855Z,12.00
2019-04-16T05:22:10.031Z,11.95
2019-04-16T05:24:39.242Z,12.30
2019-04-16T05:27:12.234Z,10.68
2019-04-16T05:29:41.462Z,12.82
2019-04-16T05:32:10.670Z,12.13
2019-04-16T05:34:39.933Z,12.47
2019-04-16T05:37:09.109Z,12.15
2019-04-16T05:39:38.319Z,11.83
2019-04-16T05:42:07.463Z,11.63
2019-04-16T05:44:36.756Z,12.70
2019-04-16T05:47:06.082Z,12.00
2019-04-16T05:49:37.565Z,11.63
2019-04-16T05:52:06.775Z,11.85
2019-04-16T05:54:55.661Z,13.00
2019-04-16T05:57:31.160Z,12.18
2019-04-16T06:00:03.291Z,12.35
2019-04-16T06:02:40.433Z,11.68
2019-04-16T06:05:09.908Z,13.20
2019-04-16T06:07:39.161Z,12.03
2019-04-16T06:10:08.699Z,11.90
2019-04-16T06:12:46.533Z,12.07
2019-04-16T06:15:28.345Z,11.75
2019-04-16T06:18:18.210Z,11.12
2019-04-16T06:20:57.263Z,12.47
2019-04-16T06:23:48.154Z,11.20
2019-04-16T06:26:22.581Z,12.10
2019-04-16T06:28:59.951Z,13.13
2019-04-16T06:31:40.082Z,13.50
2019-04-16T06:34:31.539Z,10.90
2019-04-16T06:37:10.867Z,12.00
2019-04-16T06:40:00.653Z,13.10
2019-04-16T06:42:32.164Z,12.00
2019-04-16T06:45:05.828Z,11.60
2019-04-16T06:47:52.199Z,12.37
2019-04-16T06:50:39.613Z,12.13
2019-04-16T06:53:43.641Z,13.80
2019-04-16T06:56:30.654Z,11.50
2019-04-16T06:59:09.499Z,11.67
2019-04-16T07:02:07.612Z,12.83
2019-04-16T07:04:42.077Z,13.33
2019-04-16T07:07:39.931Z,12.57
2019-04-16T07:10:09.221Z,11.90
2019-04-16T07:12:39.322Z,12.43
2019-04-16T07:15:12.261Z,12.80
2019-04-16T07:17:41.729Z,13.00
2019-04-16T07:20:13.509Z,11.67
2019-04-16T07:22:42.161Z,12.40
2019-04-16T07:25:11.490Z,12.80
2019-04-16T07:27:58.058Z,13.20
2019-04-16T07:31:01.712Z,13.17
2019-04-16T07:33:45.745Z,12.03
2019-04-16T07:36:34.117Z,13.27
2019-04-16T07:39:36.874Z,12.67
2019-04-16T07:43:47.060Z,12.70
2019-04-16T07:44:57.664Z,12.93
2019-04-16T07:47:53.532Z,12.40
2019-04-16T07:50:40.512Z,12.33
2019-04-16T07:53:31.807Z,13.90
2019-04-16T07:56:04.897Z,12.70
2019-04-16T07:58:36.978Z,12.63
2019-04-16T08:01:11.142Z,14.40
2019-04-16T08:03:42.094Z,14.87
2019-04-16T08:06:14.395Z,13.73
2019-04-16T08:08:42.590Z,14.33
2019-04-16T08:11:15.051Z,14.20
2019-04-16T08:13:44.708Z,14.90
2019-04-16T08:16:13.993Z,14.07
2019-04-16T08:18:52.551Z,15.20
2019-04-16T08:21:22.812Z,15.00
2019-04-16T08:23:59.736Z,15.50
2019-04-16T08:26:29.034Z,15.40
2019-04-16T08:29:02.716Z,14.27
2019-04-16T08:31:35.033Z,15.13
2019-04-16T08:34:04.429Z,14.90
2019-04-16T08:36:33.671Z,15.17
2019-04-16T08:39:06.486Z,15.17
2019-04-16T08:41:34.377Z,16.57
2019-04-16T08:44:04.459Z,15.60
2019-04-16T08:46:34.225Z,15.37
2019-04-16T08:49:03.528Z,15.27
2019-04-16T08:51:36.918Z,16.47
2019-04-16T08:54:03.834Z,14.80
2019-04-16T08:56:33.325Z,15.47
2019-04-16T08:59:02.646Z,15.23
2019-04-16T09:01:33.837Z,15.20
2019-04-16T09:04:03.324Z,15.83
2019-04-16T09:06:34.605Z,15.50
2019-04-16T09:09:16.783Z,15.20
2019-04-16T09:11:48.720Z,15.90
2019-04-16T09:17:01.969Z,15.37
2019-04-16T09:19:31.691Z,14.90
2019-04-16T09:22:00.970Z,14.60
2019-04-16T09:24:50.761Z,15.13
2019-04-16T09:27:34.252Z,14.30
2019-04-16T09:30:22.271Z,15.80
2019-04-16T09:33:11.577Z,14.70
2019-04-16T09:36:09.102Z,14.80
2019-04-16T09:38:47.206Z,15.40
2019-04-16T09:41:27.827Z,14.53
2019-04-16T09:43:58.632Z,14.27
2019-04-16T09:46:49.754Z,16.50
2019-04-16T09:48:59.107Z,16.00
2019-04-16T09:51:28.298Z,14.30
2019-04-16T09:53:57.606Z,14.70
2019-04-16T09:56:30.665Z,14.47
2019-04-16T09:59:04.038Z,14.60
2019-04-16T10:01:39.614Z,14.60
2019-04-16T10:04:10.844Z,15.03
2019-04-16T10:06:40.130Z,15.03
2019-04-16T10:09:09.511Z,13.97
2019-04-16T10:11:39.527Z,14.27
2019-04-16T10:14:08.677Z,14.60
2019-04-16T10:16:38.126Z,14.40
2019-04-16T10:19:08.523Z,15.20
2019-04-16T10:21:38.425Z,14.37
2019-04-16T10:24:26.066Z,14.90
2019-04-16T10:26:56.970Z,15.87
2019-04-16T10:29:26.963Z,14.60
2019-04-16T10:31:56.589Z,14.07
2019-04-16T10:34:25.974Z,13.13
2019-04-16T10:36:55.230Z,14.57
2019-04-16T10:39:42.043Z,13.97
2019-04-16T10:42:48.697Z,15.00
2019-04-16T10:45:45.303Z,15.00
2019-04-16T10:48:46.022Z,15.33
2019-04-16T10:51:30.174Z,14.27
2019-04-16T10:54:05.315Z,13.20
2019-04-16T10:56:56.563Z,16.27
2019-04-16T11:00:02.194Z,14.00
2019-04-16T11:02:50.243Z,15.50
2019-04-16T11:05:57.164Z,16.43
2019-04-16T11:08:27.245Z,16.13
2019-04-16T11:10:56.626Z,15.27
2019-04-16T11:13:29.714Z,17.10
2019-04-16T11:16:03.354Z,16.77
2019-04-16T11:18:32.639Z,15.23
2019-04-16T11:21:02.016Z,16.20
2019-04-16T11:23:31.775Z,13.60
2019-04-16T11:26:03.320Z,14.30
2019-04-16T11:28:32.595Z,16.00
2019-04-16T11:31:04.146Z,14.60
2019-04-16T11:33:33.407Z,14.67
2019-04-16T11:36:17.771Z,15.70
2019-04-16T11:38:35.795Z,17.07
2019-04-16T11:41:08.183Z,15.93
2019-04-16T11:43:37.831Z,18.40
2019-04-16T11:46:07.242Z,19.47
2019-04-16T11:48:37.496Z,20.10
2019-04-16T11:51:07.666Z,19.60
2019-04-16T11:53:38.698Z,19.17
2019-04-16T11:56:08.073Z,19.17
2019-04-16T11:58:43.485Z,19.87
2019-04-16T12:01:34.167Z,18.40
2019-04-16T12:04:21.864Z,21.17
2019-04-16T12:07:08.240Z,22.00
2019-04-16T12:09:59.751Z,21.13
2019-04-16T12:12:35.756Z,19.53
2019-04-16T12:15:18.255Z,20.40
2019-04-16T12:18:03.957Z,22.20
2019-04-16T12:20:51.382Z,19.13
2019-04-16T12:23:27.056Z,21.50
2019-04-16T12:26:18.056Z,19.43
2019-04-16T12:28:58.253Z,20.63
2019-04-16T12:31:55.789Z,20.10
2019-04-16T12:34:44.151Z,20.23
2019-04-16T12:37:30.351Z,19.10
2019-04-16T12:40:09.314Z,19.27
2019-04-16T12:42:47.204Z,18.53
2019-04-16T12:45:36.164Z,18.27
2019-04-16T12:48:37.078Z,19.67
2019-04-16T12:51:11.163Z,19.17
2019-04-16T12:54:08.740Z,17.90
2019-04-16T12:56:58.986Z,17.67
2019-04-16T12:59:40.326Z,17.53
2019-04-16T13:02:37.832Z,14.63
2019-04-16T13:05:12.390Z,14.40
2019-04-16T13:07:58.044Z,16.17
2019-04-16T13:10:37.873Z,14.90
2019-04-16T13:13:26.313Z,15.37
2019-04-16T13:16:25.779Z,14.07
2019-04-16T13:19:14.092Z,13.97
2019-04-16T13:21:48.733Z,14.83
2019-04-16T13:24:44.172Z,14.57
2019-04-16T13:27:19.307Z,14.27
2019-04-16T13:29:48.605Z,13.53
2019-04-16T13:32:17.880Z,15.00
2019-04-16T13:34:48.637Z,14.07
2019-04-16T13:37:18.090Z,13.90
2019-04-16T13:39:55.138Z,13.30
2019-04-16T13:42:24.561Z,13.47
2019-04-16T13:45:15.267Z,12.93
2019-04-16T13:47:32.473Z,13.07
2019-04-16T13:50:23.700Z,14.13
2019-04-16T13:52:57.467Z,14.00
2019-04-16T13:55:54.678Z,15.47
2019-04-16T13:58:34.426Z,14.20
2019-04-16T14:01:17.306Z,12.17
2019-04-16T14:03:46.946Z,11.10
2019-04-16T14:06:16.910Z,12.60
2019-04-16T14:08:46.391Z,12.30
2019-04-16T14:11:16.545Z,11.90
2019-04-16T14:13:50.060Z,10.37
2019-04-16T14:16:17.844Z,10.53
2019-04-16T14:18:47.062Z,10.40
2019-04-16T14:21:16.443Z,11.03
2019-04-16T14:23:47.073Z,11.20
2019-04-16T14:26:16.367Z,11.20
2019-04-16T14:28:52.412Z,9.80
2019-04-16T14:31:17.907Z,10.27
2019-04-16T14:33:52.194Z,9.67
2019-04-16T14:36:21.446Z,10.93
2019-04-16T14:38:54.313Z,11.90
2019-04-16T14:41:23.564Z,10.80
2019-04-16T14:44:03.134Z,9.27
2019-04-16T14:46:32.923Z,10.30
2019-04-16T14:49:02.231Z,10.40
2019-04-16T14:51:31.480Z,9.63
2019-04-16T14:54:08.968Z,11.50
2019-04-16T14:56:49.581Z,9.93
2019-04-16T14:59:33.982Z,9.20
2019-04-16T15:02:29.653Z,10.63
2019-04-16T15:05:17.629Z,9.30
2019-04-16T15:08:21.305Z,10.00
2019-04-16T15:11:08.557Z,8.73
2019-04-16T15:13:49.116Z,11.10
2019-04-16T15:16:53.028Z,10.03
2019-04-16T15:19:31.415Z,9.10
2019-04-16T15:22:18.404Z,10.40
2019-04-16T15:25:04.848Z,9.60
2019-04-16T15:27:49.622Z,9.90
2019-04-16T15:30:36.730Z,10.97
2019-04-16T15:33:23.926Z,10.30
2019-04-16T15:35:57.194Z,11.57
2019-04-16T15:38:45.502Z,10.20
2019-04-16T15:41:44.635Z,8.80
2019-04-16T15:44:45.770Z,9.60
2019-04-16T15:47:26.706Z,9.50
2019-04-16T15:50:14.902Z,10.60
2019-04-16T15:52:51.219Z,11.43
2019-04-16T15:55:34.439Z,12.50
2019-04-16T15:58:21.649Z,11.87
2019-04-16T16:01:19.279Z,10.67
2019-04-16T16:04:06.356Z,9.57
2019-04-16T16:06:40.105Z,8.03
2019-04-16T16:09:17.200Z,7.50
2019-04-16T16:12:00.431Z,7.07
2019-04-16T16:14:34.677Z,7.37
2019-04-16T16:17:02.442Z,7.63
2019-04-16T16:19:31.757Z,7.97
2019-04-16T16:22:01.032Z,7.83
2019-04-16T16:24:30.421Z,7.97
2019-04-16T16:26:59.664Z,7.70
2019-04-16T16:29:30.670Z,8.00
2019-04-16T16:32:00.051Z,7.67
2019-04-16T16:34:29.604Z,7.90
2019-04-16T16:36:58.965Z,5.63
2019-04-16T16:39:28.353Z,7.03
2019-04-16T16:41:57.783Z,4.57
2019-04-16T16:44:27.087Z,3.53
2019-04-16T16:47:20.480Z,3.37
2019-04-16T16:49:49.827Z,3.20
2019-04-16T16:52:38.886Z,2.90
2019-04-16T16:55:13.425Z,3.30
2019-04-16T16:57:50.019Z,2.50
2019-04-16T17:00:38.688Z,2.60
2019-04-16T17:03:36.038Z,1.90
2019-04-16T17:06:08.745Z,2.57
2019-04-16T17:08:38.125Z,3.20
2019-04-16T17:11:16.286Z,2.10
2019-04-16T17:13:38.718Z,2.03
2019-04-16T17:16:13.320Z,1.93
2019-04-16T17:18:39.266Z,2.57
2019-04-16T17:21:08.641Z,1.73
2019-04-16T17:23:38.282Z,1.47
2019-04-16T17:26:08.083Z,1.77
2019-04-16T17:28:40.341Z,1.50
2019-04-16T17:31:09.173Z,1.47
2019-04-16T17:33:38.479Z,6.60
2019-04-16T17:36:08.135Z,2.47
2019-04-16T17:38:37.781Z,2.30
2019-04-16T17:41:15.657Z,8.10
2019-04-16T17:44:16.508Z,2.30
2019-04-16T17:47:04.910Z,2.40
2019-04-16T17:49:46.257Z,2.50
2019-04-16T17:52:24.954Z,2.50
2019-04-16T17:55:12.672Z,3.53
2019-04-16T17:57:49.699Z,5.20
2019-04-16T18:03:51.017Z,2.83
2019-04-16T18:06:45.720Z,2.67
2019-04-16T18:09:43.274Z,1.90
2019-04-16T18:12:43.482Z,2.50
2019-04-16T18:15:19.032Z,2.77
2019-04-16T18:17:56.646Z,2.13
2019-04-16T18:20:37.738Z,2.50
2019-04-16T18:23:27.754Z,3.10
2019-04-16T18:26:16.189Z,1.90
2019-04-16T18:29:01.490Z,1.97
2019-04-16T18:31:43.395Z,2.17
2019-04-16T18:34:31.336Z,2.43
2019-04-16T18:37:28.627Z,2.20
2019-04-16T18:40:13.403Z,2.57
2019-04-16T18:43:01.850Z,3.03
2019-04-16T18:45:52.259Z,2.60
2019-04-16T18:48:25.546Z,2.17
2019-04-16T18:50:59.902Z,2.20
2019-04-16T18:53:28.190Z,2.50
2019-04-16T18:55:57.574Z,1.67
2019-04-16T18:58:26.944Z,2.03
2019-04-16T19:01:03.500Z,2.20
2019-04-16T19:03:32.806Z,1.50
2019-04-16T19:06:05.226Z,1.90
2019-04-16T19:08:42.019Z,1.80
2019-04-16T19:11:06.328Z,2.20
2019-04-16T19:13:35.714Z,2.23
2019-04-16T19:16:17.331Z,1.93
2019-04-16T19:18:47.931Z,2.13
2019-04-16T19:21:17.377Z,2.30
2019-04-16T19:23:49.121Z,2.37
2019-04-16T19:26:23.710Z,2.30
2019-04-16T19:28:53.580Z,2.50
2019-04-16T19:31:23.845Z,2.93
2019-04-16T19:33:53.984Z,3.37
2019-04-16T19:36:27.244Z,3.47
2019-04-16T19:38:54.347Z,3.27
2019-04-16T19:41:24.610Z,3.23
2019-04-16T19:43:54.469Z,3.53
2019-04-16T19:46:23.853Z,3.23
2019-04-16T19:48:53.077Z,2.47
2019-04-16T19:51:22.290Z,3.90
2019-04-16T19:53:52.171Z,3.47
2019-04-16T19:56:23.801Z,3.47
2019-04-16T19:58:53.464Z,3.47
2019-04-16T20:01:25.934Z,3.20
2019-04-16T20:03:55.617Z,3.80
2019-04-16T20:06:26.262Z,3.93
2019-04-16T20:08:56.243Z,5.80
2019-04-16T20:11:25.516Z,6.20
2019-04-16T20:13:55.484Z,4.83
2019-04-16T20:16:24.718Z,4.70
2019-04-16T20:18:54.319Z,5.30
2019-04-16T20:21:25.724Z,4.60
2019-04-16T20:23:55.214Z,4.07
2019-04-16T20:26:34.022Z,3.73
2019-04-16T20:29:03.560Z,4.43
2019-04-16T20:31:32.946Z,5.60
2019-04-16T20:34:05.276Z,6.60
2019-04-16T20:36:34.486Z,4.53
2019-04-16T20:39:06.410Z,4.87
2019-04-16T20:41:35.812Z,4.20
2019-04-16T20:44:08.551Z,4.63
2019-04-16T20:46:36.706Z,4.30
2019-04-16T20:49:10.174Z,6.20
2019-04-16T20:51:37.746Z,6.13
2019-04-16T20:54:12.800Z,5.20
2019-04-16T20:56:40.780Z,5.60
2019-04-16T20:59:16.375Z,3.30
2019-04-16T21:01:48.538Z,4.00
2019-04-16T21:04:17.690Z,3.40
2019-04-16T21:06:47.315Z,3.97
2019-04-16T21:09:16.637Z,4.10
2019-04-16T21:11:46.204Z,3.90
2019-04-16T21:14:15.749Z,3.73
2019-04-16T21:16:45.242Z,3.40
2019-04-16T21:19:22.690Z,3.17
2019-04-16T21:21:45.860Z,2.60
2019-04-16T21:24:15.486Z,2.90
2019-04-16T21:26:51.014Z,2.37
2019-04-16T21:29:25.432Z,2.93
2019-04-16T21:31:58.655Z,3.10
2019-04-16T21:34:48.950Z,2.90
2019-04-16T21:37:40.682Z,2.87
2019-04-16T21:40:10.331Z,2.30
2019-04-16T21:42:40.006Z,2.53
2019-04-16T21:45:09.371Z,3.10
2019-04-16T21:47:39.271Z,2.83
2019-04-16T21:50:08.992Z,2.50
2019-04-16T21:52:38.247Z,2.57
2019-04-16T21:55:08.349Z,2.70
2019-04-16T21:57:42.883Z,2.60
2019-04-16T22:00:27.825Z,2.73
2019-04-16T22:02:59.649Z,2.83
2019-04-16T22:05:36.941Z,2.80
2019-04-16T22:08:09.330Z,3.27
2019-04-16T22:10:38.531Z,2.30
2019-04-16T22:13:08.060Z,3.50
2019-04-16T22:15:37.403Z,2.37
2019-04-16T22:18:08.837Z,2.80
2019-04-16T22:20:37.815Z,2.47
2019-04-16T22:23:07.161Z,2.70
2019-04-16T22:25:36.911Z,2.90
2019-04-16T22:28:11.374Z,2.70
2019-04-16T22:30:37.069Z,3.20
2019-04-16T22:33:07.216Z,3.47
2019-04-16T22:35:36.932Z,2.70
2019-04-16T22:38:06.492Z,2.70
2019-04-16T22:41:01.133Z,4.00
2019-04-16T22:43:48.240Z,3.90
2019-04-16T22:46:21.152Z,3.40
2019-04-16T22:49:00.378Z,3.60
2019-04-16T22:51:29.624Z,3.80
2019-04-16T22:53:58.889Z,3.50
2019-04-16T22:59:14.638Z,3.53
2019-04-16T23:01:45.499Z,3.98
2019-04-16T23:04:14.970Z,3.87
2019-04-16T23:06:44.229Z,4.15
2019-04-16T23:09:17.052Z,3.40
2019-04-16T23:11:45.528Z,3.60
2019-04-16T23:14:14.755Z,3.70
2019-04-16T23:16:48.636Z,3.80
2019-04-16T23:19:20.503Z,3.50
2019-04-16T23:21:48.728Z,3.80
2019-04-16T23:24:23.063Z,4.20
2019-04-16T23:26:48.898Z,3.57
2019-04-16T23:29:18.134Z,3.87
2019-04-16T23:31:48.130Z,3.20
2019-04-16T23:34:17.362Z,3.40
2019-04-16T23:36:48.743Z,3.90
2019-04-16T23:39:17.477Z,3.80
2019-04-16T23:41:48.191Z,3.73
2019-04-16T23:44:36.630Z,3.30
2019-04-16T23:47:27.678Z,3.93
2019-04-16T23:50:21.732Z,4.15
2019-04-16T23:52:56.140Z,3.83
2019-04-16T23:55:51.662Z,3.70
2019-04-16T23:58:35.678Z,3.50
